Time;durP1;ratioP1;P1;durP2;ratioP2;P2;SDS_P1;SDS_P2;PMS_P1;PMS_P2;Temp;Humidity;BMP_temperature;BMP_pressure;BME280_temperature;BME280_humidity;BME280_pressure;Samples;Min_cycle;Max_cycle;Signal;HPM_P1;HPM_P2
2022/07/04 00:00:37;;;;;;;7.40;4.87;;;;;;;19.84;65.33;100516.40;1701438;84;21046;-75
2022/07/04 00:03:07;;;;;;;7.70;5.42;;;;;;;19.85;65.25;100518.08;1686052;85;21097;-75
2022/07/04 00:05:37;;;;;;;8.05;5.30;;;;;;;19.84;65.24;100512.23;1706952;83;21047;-77
2022/07/04 00:08:07;;;;;;;9.83;5.33;;;;;;;19.85;65.19;100516.14;1698429;83;20988;-76
2022/07/04 00:10:36;;;;;;;10.03;5.30;;;;;;;19.80;65.15;100511.05;1650443;85;21002;-73
2022/07/04 00:13:05;;;;;;;7.80;5.25;;;;;;;19.72;65.29;100515.11;1673567;85;21070;-76
2022/07/04 00:15:35;;;;;;;9.75;5.58;;;;;;;19.66;65.59;100520.30;1711809;82;21076;-74
2022/07/04 00:18:06;;;;;;;9.38;5.70;;;;;;;19.65;65.73;100524.18;1727870;83;21054;-75
2022/07/04 00:20:36;;;;;;;7.87;5.62;;;;;;;19.66;65.64;100525.86;1719858;83;21054;-76
2022/07/04 00:23:06;;;;;;;9.15;5.85;;;;;;;19.67;65.51;100531.72;1720914;83;21018;-75
2022/07/04 00:25:35;;;;;;;10.30;5.80;;;;;;;19.67;65.56;100531.72;1710083;83;21095;-76
2022/07/04 00:28:04;;;;;;;11.10;5.62;;;;;;;19.65;65.65;100531.13;1721561;83;21040;-75
2022/07/04 00:30:34;;;;;;;8.43;5.62;;;;;;;19.63;65.78;100532.78;1738788;82;21083;-75
2022/07/04 00:33:03;;;;;;;10.05;5.30;;;;;;;19.64;65.75;100530.84;1715937;83;21007;-75
2022/07/04 00:35:32;;;;;;;11.70;5.58;;;;;;;19.65;65.76;100531.13;1726789;83;21067;-76
2022/07/04 00:38:02;;;;;;;7.90;5.17;;;;;;;19.63;65.85;100530.55;1705147;83;21078;-75
2022/07/04 00:40:32;;;;;;;6.83;5.42;;;;;;;19.62;65.99;100522.75;1706058;83;21517;-74
2022/07/04 00:43:03;;;;;;;10.23;5.90;;;;;;;19.60;66.11;100530.50;1708542;83;21130;-76
2022/07/04 00:45:34;;;;;;;9.63;6.03;;;;;;;19.54;66.24;100522.34;1721507;83;21471;-76
2022/07/04 00:48:03;;;;;;;10.35;5.60;;;;;;;19.48;66.42;100524.67;1717767;83;21039;-76
2022/07/04 00:50:32;;;;;;;11.63;5.85;;;;;;;19.49;66.54;100531.92;1722526;83;21122;-76
2022/07/04 00:53:02;;;;;;;8.03;5.40;;;;;;;19.49;66.68;100523.03;1716904;83;21114;-76
2022/07/04 00:55:32;;;;;;;8.15;5.78;;;;;;;19.47;66.72;100525.77;1708585;83;21090;-76
2022/07/04 00:58:01;;;;;;;7.28;5.65;;;;;;;19.46;66.77;100528.27;1712890;82;21063;-75
2022/07/04 01:00:31;;;;;;;10.32;5.58;;;;;;;19.42;66.81;100529.31;1722772;83;21026;-76
2022/07/04 01:03:00;;;;;;;7.80;5.67;;;;;;;19.39;66.84;100528.98;1713793;83;21055;-74
2022/07/04 01:05:29;;;;;;;11.65;5.45;;;;;;;19.38;66.90;100526.75;1713391;83;21050;-75
2022/07/04 01:07:59;;;;;;;7.03;5.25;;;;;;;19.35;66.87;100530.58;1713815;83;21058;-76
2022/07/04 01:10:28;;;;;;;8.53;5.70;;;;;;;19.31;66.91;100525.52;1714955;83;21470;-76
2022/07/04 01:12:58;;;;;;;8.05;4.90;;;;;;;19.33;67.05;100526.11;1718212;83;21079;-76
2022/07/04 01:15:29;;;;;;;9.05;5.67;;;;;;;19.34;67.11;100528.34;1714468;83;21047;-76
2022/07/04 01:17:58;;;;;;;9.58;5.87;;;;;;;19.30;67.32;100529.40;1711608;83;21075;-75
2022/07/04 01:20:29;;;;;;;8.50;5.28;;;;;;;19.28;67.45;100525.19;1693082;83;21003;-77
2022/07/04 01:22:58;;;;;;;8.93;5.87;;;;;;;19.28;67.48;100523.25;1717897;83;21075;-76
2022/07/04 01:25:28;;;;;;;8.03;5.10;;;;;;;19.26;67.57;100528.77;1716461;83;21495;-76
2022/07/04 01:28:00;;;;;;;8.65;5.80;;;;;;;19.26;67.59;100519.88;1716270;83;21043;-76
2022/07/04 01:30:30;;;;;;;6.95;5.47;;;;;;;19.28;67.28;100520.47;1717334;83;21035;-75
2022/07/04 01:32:59;;;;;;;8.65;5.90;;;;;;;19.26;67.13;100523.20;1715741;83;21039;-73
2022/07/04 01:35:29;;;;;;;10.48;5.33;;;;;;;19.22;67.19;100522.03;1716163;83;21051;-73
2022/07/04 01:37:57;;;;;;;8.80;5.58;;;;;;;19.18;67.39;100517.52;1717729;83;21059;-75
2022/07/04 01:40:29;;;;;;;10.15;5.62;;;;;;;19.13;67.56;100524.38;1716459;83;21110;-76
2022/07/04 01:42:58;;;;;;;10.43;5.78;;;;;;;19.13;67.56;100529.94;1714759;83;21452;-75
2022/07/04 01:45:27;;;;;;;9.80;5.87;;;;;;;19.14;67.59;100531.63;1684776;83;21051;-75
2022/07/04 01:47:56;;;;;;;11.00;5.90;;;;;;;19.18;67.60;100535.58;1716136;83;21024;-75
2022/07/04 01:50:27;;;;;;;7.72;5.25;;;;;;;19.21;67.74;100533.69;1714480;83;21083;-76
2022/07/04 01:52:56;;;;;;;8.10;5.90;;;;;;;19.19;67.85;100530.31;1715802;83;21048;-76
2022/07/04 01:55:25;;;;;;;9.50;6.10;;;;;;;19.15;68.09;100524.97;1715108;83;21063;-75
2022/07/04 01:57:54;;;;;;;10.48;5.62;;;;;;;19.14;68.23;100528.84;1716953;83;21051;-72
2022/07/04 02:03:13;;;;;;;9.45;5.72;;;;;;;19.12;68.29;100526.86;1716918;83;21456;-75
2022/07/04 02:05:44;;;;;;;9.08;5.40;;;;;;;19.15;68.13;100531.91;1713853;83;21566;-75
2022/07/04 02:08:13;;;;;;;12.18;5.70;;;;;;;19.18;67.89;100534.19;1717830;83;21027;-76
2022/07/04 02:10:42;;;;;;;11.97;5.45;;;;;;;19.16;67.76;100534.14;1714616;83;21083;-76
2022/07/04 02:13:11;;;;;;;7.45;5.30;;;;;;;19.13;67.82;100535.48;1716741;83;21047;-76
2022/07/04 02:15:41;;;;;;;8.93;6.15;;;;;;;19.11;67.98;100532.67;1729784;82;21086;-75
2022/07/04 02:18:11;;;;;;;7.80;5.53;;;;;;;19.08;68.15;100540.95;1751763;82;21063;-74
2022/07/04 02:20:40;;;;;;;9.08;5.80;;;;;;;19.07;68.27;100542.05;1737040;82;20998;-75
2022/07/04 02:23:09;;;;;;;7.72;5.62;;;;;;;18.99;68.43;100551.63;1739667;81;21055;-75
2022/07/04 02:25:39;;;;;;;8.83;5.67;;;;;;;18.99;68.64;100550.78;1749060;82;21107;-76
2022/07/04 02:28:07;;;;;;;10.98;6.05;;;;;;;18.97;68.79;100544.64;1739543;82;21063;-76
2022/07/04 02:30:39;;;;;;;9.95;6.25;;;;;;;18.90;69.08;100544.80;1727250;81;21024;-73
2022/07/04 02:33:08;;;;;;;11.55;6.35;;;;;;;18.89;69.40;100543.66;1733998;82;21525;-75
2022/07/04 02:35:37;;;;;;;10.13;5.83;;;;;;;18.90;69.50;100537.85;1715870;83;21031;-75
2022/07/04 02:38:06;;;;;;;8.38;5.53;;;;;;;18.94;69.42;100547.91;1739594;82;21031;-75
2022/07/04 02:40:35;;;;;;;12.82;6.10;;;;;;;18.96;69.24;100546.57;1721185;83;21552;-76
2022/07/04 02:43:04;;;;;;;10.78;6.30;;;;;;;19.00;69.17;100542.75;1694153;83;21075;-76
2022/07/04 02:45:34;;;;;;;9.00;5.58;;;;;;;19.01;69.09;100538.87;1704336;83;21027;-76
2022/07/04 02:48:03;;;;;;;13.78;6.22;;;;;;;19.00;69.11;100539.97;1718490;83;21039;-76
2022/07/04 02:50:32;;;;;;;10.65;6.17;;;;;;;19.00;69.12;100543.59;1722944;82;21055;-77
2022/07/04 02:53:02;;;;;;;15.95;6.40;;;;;;;19.03;69.03;100535.85;1703682;83;21035;-75
2022/07/04 02:55:31;;;;;;;10.48;5.72;;;;;;;19.06;68.94;100547.30;1701387;83;21063;-76
2022/07/04 02:58:00;;;;;;;8.95;5.65;;;;;;;19.10;68.88;100537.38;1709644;83;21261;-76
2022/07/04 03:00:32;;;;;;;8.73;6.00;;;;;;;19.16;68.72;100539.70;1729229;83;21035;-77
2022/07/04 03:03:01;;;;;;;9.73;5.78;;;;;;;19.17;68.64;100536.67;1729366;83;21059;-74
2022/07/04 03:05:32;;;;;;;8.10;5.75;;;;;;;19.20;68.74;100543.11;1714799;83;21464;-75
2022/07/04 03:08:01;;;;;;;9.68;6.62;;;;;;;19.18;68.97;100542.52;1734760;82;21023;-76
2022/07/04 03:10:31;;;;;;;9.30;6.47;;;;;;;19.19;69.12;100540.05;1703808;83;21054;-73
2022/07/04 03:13:00;;;;;;;8.25;5.60;;;;;;;19.25;68.90;100541.81;1714766;83;21486;-76
2022/07/04 03:15:31;;;;;;;7.72;5.80;;;;;;;19.30;68.77;100539.67;1717299;82;21733;-75
2022/07/04 03:18:01;;;;;;;11.60;6.28;;;;;;;19.31;68.73;100544.13;1681682;83;21079;-75
2022/07/04 03:20:31;;;;;;;9.98;6.45;;;;;;;19.27;68.82;100546.57;1704326;83;21035;-75
2022/07/04 03:23:00;;;;;;;9.70;6.40;;;;;;;19.26;68.95;100551.83;1687511;83;21027;-75
2022/07/04 03:25:29;;;;;;;12.25;6.40;;;;;;;19.28;69.12;100544.64;1691816;83;21043;-75
2022/07/04 03:28:00;;;;;;;9.88;6.00;;;;;;;19.27;69.32;100545.73;1712654;83;21024;-75
2022/07/04 03:30:30;;;;;;;11.08;6.75;;;;;;;19.26;69.34;100543.50;1689466;83;21040;-74
2022/07/04 03:32:59;;;;;;;9.13;6.50;;;;;;;19.27;69.33;100543.80;1694271;84;21031;-75
2022/07/04 03:35:30;;;;;;;8.55;6.12;;;;;;;19.31;69.26;100553.86;1678131;84;21074;-76
2022/07/04 03:38:00;;;;;;;10.10;6.12;;;;;;;19.39;69.10;100555.37;1678663;85;21061;-74
2022/07/04 03:40:30;;;;;;;9.30;6.28;;;;;;;19.48;69.10;100558.03;1700497;83;21086;-75
2022/07/04 03:43:00;;;;;;;10.55;6.45;;;;;;;19.56;68.96;100552.95;1696294;83;21522;-72
2022/07/04 03:45:29;;;;;;;11.20;6.60;;;;;;;19.63;68.87;100545.28;1675149;84;21051;-76
2022/07/04 03:48:02;;;;;;;12.35;6.40;;;;;;;19.68;68.72;100549.24;1679752;84;21042;-77
2022/07/04 03:50:31;;;;;;;11.15;6.30;;;;;;;19.71;68.61;100545.95;1686330;84;21038;-76
2022/07/04 03:53:01;;;;;;;15.08;7.22;;;;;;;19.77;68.66;100549.95;1682821;84;21042;-75
2022/07/04 03:55:30;;;;;;;14.07;7.30;;;;;;;19.82;68.61;100543.62;1679166;84;21073;-76
2022/07/04 03:57:59;;;;;;;8.00;6.60;;;;;;;19.89;68.16;100536.78;1690992;84;21043;-77
2022/07/04 04:00:27;;;;;;;11.83;6.78;;;;;;;19.97;67.82;100541.06;1689482;84;21078;-75
2022/07/04 04:02:58;;;;;;;9.68;6.37;;;;;;;20.06;67.47;100535.34;1692090;84;21047;-76
2022/07/04 04:05:27;;;;;;;9.90;6.60;;;;;;;20.14;67.48;100533.52;1686452;84;21062;-76
2022/07/04 04:07:58;;;;;;;14.78;6.97;;;;;;;20.18;67.58;100528.30;1680501;84;21061;-76
2022/07/04 04:10:34;;;;;;;10.58;6.45;;;;;;;20.19;67.89;100541.12;1677194;84;21454;-75
2022/07/04 04:13:01;;;;;;;15.58;8.30;;;;;;;20.21;67.80;100534.20;1674673;84;21023;-76
2022/07/04 04:15:30;;;;;;;10.30;6.65;;;;;;;20.24;67.60;100527.27;1686415;84;21059;-77
2022/07/04 04:18:00;;;;;;;10.05;6.62;;;;;;;20.30;67.40;100525.39;1700927;84;20999;-75
2022/07/04 04:20:30;;;;;;;12.43;7.33;;;;;;;20.37;67.16;100525.49;1703676;84;21133;-74
2022/07/04 04:22:59;;;;;;;10.82;6.47;;;;;;;20.45;66.95;100522.28;1692613;84;21078;-76
2022/07/04 04:25:29;;;;;;;14.90;6.97;;;;;;;20.54;66.73;100516.55;1692212;84;21109;-75
2022/07/04 04:27:58;;;;;;;12.28;7.00;;;;;;;20.63;66.56;100515.53;1704355;84;21058;-76
2022/07/04 04:30:27;;;;;;;13.95;7.12;;;;;;;20.72;66.09;100518.69;1704004;84;21482;-74
2022/07/04 04:32:57;;;;;;;10.13;6.70;;;;;;;20.83;65.44;100522.74;1695908;84;21106;-76
2022/07/04 04:35:26;;;;;;;12.93;6.30;;;;;;;20.94;65.19;100515.89;1704531;84;21489;-74
2022/07/04 04:37:55;;;;;;;18.12;6.65;;;;;;;21.02;64.70;100520.98;1696369;84;21170;-75
2022/07/04 04:40:24;;;;;;;12.58;6.42;;;;;;;21.12;63.74;100518.29;1695981;84;21462;-73
2022/07/04 04:42:53;;;;;;;14.55;5.75;;;;;;;21.26;62.66;100521.51;1688824;85;20999;-76
2022/07/04 04:45:22;;;;;;;14.00;5.85;;;;;;;21.39;62.00;100523.84;1686339;85;21042;-74
2022/07/04 04:47:53;;;;;;;11.18;5.87;;;;;;;21.53;61.13;100526.50;1708230;83;21023;-74
2022/07/04 04:50:22;;;;;;;12.07;6.03;;;;;;;21.65;60.66;100525.76;1706441;83;21085;-74
2022/07/04 04:52:51;;;;;;;17.07;6.42;;;;;;;21.76;60.27;100532.25;1677610;83;21051;-74
2022/07/04 04:55:22;;;;;;;11.70;6.05;;;;;;;21.88;59.76;100523.67;1693587;84;21027;-77
2022/07/04 04:57:51;;;;;;;14.18;6.15;;;;;;;21.98;59.27;100521.78;1678291;85;21039;-76
2022/07/04 05:00:20;;;;;;;16.52;7.10;;;;;;;22.12;58.89;100518.86;1692151;85;21035;-74
2022/07/04 05:02:50;;;;;;;12.07;6.25;;;;;;;22.31;58.34;100519.78;1715452;83;21079;-76
2022/07/04 05:05:20;;;;;;;12.93;6.00;;;;;;;22.58;57.76;100527.98;1687999;84;21077;-75
2022/07/04 05:07:49;;;;;;;11.88;5.95;;;;;;;22.88;56.39;100521.14;1680471;84;21036;-76
2022/07/04 05:10:18;;;;;;;11.48;6.20;;;;;;;23.20;55.77;100524.26;1692544;84;21501;-74
2022/07/04 05:12:48;;;;;;;15.72;6.65;;;;;;;23.53;55.11;100520.94;1690647;84;21042;-76
2022/07/04 05:15:17;;;;;;;11.63;5.85;;;;;;;23.88;54.46;100520.64;1696959;84;21062;-72
2022/07/04 05:17:45;;;;;;;13.60;6.35;;;;;;;24.21;53.19;100521.98;1716481;83;21091;-74
2022/07/04 05:20:15;;;;;;;9.85;5.53;;;;;;;24.53;52.13;100519.63;1704424;83;21214;-75
2022/07/04 05:22:44;;;;;;;12.03;5.28;;;;;;;24.87;51.29;100516.95;1707377;83;21003;-73
2022/07/04 05:25:13;;;;;;;10.10;5.42;;;;;;;25.25;50.41;100515.88;1702620;83;20991;-74
2022/07/04 05:27:44;;;;;;;10.00;5.72;;;;;;;25.63;48.75;100512.77;1710284;83;21423;-74
2022/07/04 05:30:14;;;;;;;18.27;6.15;;;;;;;25.94;47.34;100512.49;1731486;82;21063;-74
2022/07/04 05:32:43;;;;;;;10.32;5.83;;;;;;;26.21;46.64;100506.59;1711548;83;21011;-74
2022/07/04 05:35:12;;;;;;;12.23;5.55;;;;;;;26.48;46.47;100507.97;1707484;83;21037;-76
2022/07/04 05:37:44;;;;;;;12.82;5.50;;;;;;;26.75;45.23;100512.97;1702043;83;21004;-73
2022/07/04 05:40:18;;;;;;;12.13;4.97;;;;;;;26.99;44.58;100508.72;1720210;83;21031;-74
2022/07/04 05:42:48;;;;;;;19.98;9.40;;;;;;;27.27;43.80;100504.88;1718499;83;21051;-74
2022/07/04 05:45:19;;;;;;;9.03;5.53;;;;;;;27.54;43.30;100498.55;1715803;83;21507;-76
2022/07/04 05:47:48;;;;;;;16.05;5.60;;;;;;;27.76;42.73;100505.77;1710318;83;21035;-73
2022/07/04 05:50:17;;;;;;;10.13;5.40;;;;;;;27.98;42.01;100497.23;1717112;83;21075;-76
2022/07/04 05:52:47;;;;;;;10.05;4.97;;;;;;;28.18;41.36;100505.27;1691761;83;20987;-74
2022/07/04 05:55:18;;;;;;;11.33;5.80;;;;;;;28.33;40.68;100498.52;1730831;82;21033;-75
2022/07/04 05:57:46;;;;;;;12.28;5.33;;;;;;;28.50;40.36;100495.89;1719001;82;21118;-75
2022/07/04 06:00:16;;;;;;;13.45;6.35;;;;;;;28.67;39.57;100496.10;1720502;83;21189;-72
2022/07/04 06:02:48;;;;;;;10.10;5.47;;;;;;;28.79;39.46;100503.19;1715836;83;21554;-74
2022/07/04 06:05:18;;;;;;;10.55;5.97;;;;;;;28.95;39.24;100505.36;1716750;83;20999;-74
2022/07/04 06:07:48;;;;;;;10.15;5.10;;;;;;;29.15;38.65;100491.92;1727135;83;21050;-74
2022/07/04 06:10:17;;;;;;;6.78;5.00;;;;;;;29.22;38.33;100488.07;1728070;83;21086;-73
2022/07/04 06:12:46;;;;;;;9.33;4.95;;;;;;;29.36;37.82;100490.28;1717796;83;21068;-74
2022/07/04 06:15:15;;;;;;;10.10;4.67;;;;;;;29.55;37.12;100492.36;1715926;83;21062;-73
2022/07/04 06:17:45;;;;;;;14.43;6.03;;;;;;;29.77;36.45;100487.25;1702882;84;21067;-73
2022/07/04 06:20:15;;;;;;;9.75;6.15;;;;;;;30.03;36.30;100487.44;1693115;84;21417;-74
2022/07/04 06:22:46;;;;;;;11.28;4.90;;;;;;;30.28;34.97;100495.19;1687564;84;21005;-74
2022/07/04 06:25:22;;;;;;;10.23;5.30;;;;;;;30.38;34.59;100494.05;1675984;84;21531;-76
2022/07/04 06:27:52;;;;;;;10.80;5.12;;;;;;;30.47;34.39;100486.42;1651026;85;21059;-74
2022/07/04 06:30:21;;;;;;;9.98;6.17;;;;;;;30.54;34.11;100485.36;1675839;85;21021;-69
2022/07/04 06:32:54;;;;;;;10.25;6.40;;;;;;;30.68;33.91;100479.62;1675775;85;21032;-76
2022/07/04 06:38:21;;;;;;;6.95;4.40;;;;;;;31.01;32.41;100482.81;1687294;84;21043;-75
2022/07/04 06:40:54;;;;;;;6.87;4.37;;;;;;;31.04;32.21;100467.16;1676372;84;21002;-76
2022/07/04 06:43:23;;;;;;;9.45;5.00;;;;;;;31.02;32.14;100479.39;1681502;85;21135;-74
2022/07/04 06:45:52;;;;;;;7.25;4.55;;;;;;;31.10;32.25;100479.39;1672052;85;21078;-76
2022/07/04 06:48:22;;;;;;;7.10;4.22;;;;;;;31.25;31.27;100471.63;1688863;85;21025;-71
2022/07/04 06:50:52;;;;;;;10.05;4.45;;;;;;;31.22;31.74;100475.95;1693444;84;21504;-75
2022/07/04 06:53:22;;;;;;;6.87;4.20;;;;;;;31.32;31.83;100471.36;1674500;84;21124;-75
2022/07/04 06:55:51;;;;;;;7.78;4.28;;;;;;;31.41;31.33;100473.59;1688456;83;21014;-73
2022/07/04 06:58:20;;;;;;;8.83;4.72;;;;;;;31.40;31.41;100466.86;1693307;83;21046;-76
2022/07/04 07:00:49;;;;;;;11.95;4.70;;;;;;;31.45;31.35;100469.52;1675695;85;21014;-73
2022/07/04 07:03:19;;;;;;;9.53;4.47;;;;;;;31.57;31.06;100464.57;1690011;83;21037;-73
2022/07/04 07:05:48;;;;;;;6.92;4.28;;;;;;;31.76;31.07;100465.05;1677180;84;21037;-77
2022/07/04 07:08:20;;;;;;;13.68;5.22;;;;;;;31.97;30.49;100468.83;1707160;83;21521;-73
2022/07/04 07:10:49;;;;;;;6.85;4.15;;;;;;;32.08;30.34;100466.45;1676048;85;21036;-73
2022/07/04 07:13:19;;;;;;;9.73;4.10;;;;;;;32.27;30.18;100456.95;1649934;85;21039;-74
2022/07/04 07:15:49;;;;;;;5.78;4.17;;;;;;;32.40;29.73;100457.30;1664400;86;21470;-75
2022/07/04 07:18:21;;;;;;;7.37;4.10;;;;;;;32.53;29.88;100451.75;1690306;83;21073;-73
2022/07/04 07:20:50;;;;;;;9.05;4.22;;;;;;;32.65;29.86;100462.59;1692098;83;21047;-73
2022/07/04 07:23:21;;;;;;;7.42;3.98;;;;;;;32.73;29.59;100462.28;1721486;83;21135;-74
2022/07/04 07:25:50;;;;;;;8.75;4.08;;;;;;;32.80;29.46;100466.85;1713692;83;21496;-73
2022/07/04 07:28:24;;;;;;;7.45;3.60;;;;;;;32.95;29.13;100463.98;1712379;83;21058;-75
2022/07/04 07:30:55;;;;;;;5.40;3.42;;;;;;;33.01;28.96;100469.10;1714595;83;21114;-76
2022/07/04 07:33:25;;;;;;;6.95;3.40;;;;;;;33.00;28.79;100463.77;1715112;83;21007;-75
2022/07/04 07:35:55;;;;;;;5.53;3.20;;;;;;;33.08;28.46;100462.86;1704037;83;21013;-74
2022/07/04 07:38:24;;;;;;;5.90;3.77;;;;;;;33.12;28.52;100468.09;1731180;82;21055;-75
2022/07/04 07:40:54;;;;;;;7.10;3.30;;;;;;;33.20;28.52;100467.80;1722344;82;21027;-74
2022/07/04 07:43:24;;;;;;;11.97;4.62;;;;;;;33.34;28.63;100469.19;1734956;82;21079;-75
2022/07/04 07:45:53;;;;;;;6.53;3.30;;;;;;;33.49;27.75;100461.19;1733930;82;21059;-75
2022/07/04 07:48:23;;;;;;;4.78;2.95;;;;;;;33.55;28.02;100468.31;1712111;82;21079;-75
2022/07/04 07:50:51;;;;;;;9.03;3.10;;;;;;;33.64;27.54;100468.46;1734264;82;21092;-73
2022/07/04 07:53:21;;;;;;;10.00;3.12;;;;;;;33.64;27.60;100468.46;1734748;82;21020;-73
2022/07/04 07:55:52;;;;;;;7.28;3.10;;;;;;;33.71;27.32;100470.73;1730670;82;21080;-73
2022/07/04 07:58:21;;;;;;;47.65;6.47;;;;;;;33.81;27.18;100472.28;1734061;82;21047;-77
2022/07/04 08:00:51;;;;;;;7.78;3.30;;;;;;;33.88;26.76;100466.91;1724029;82;21554;-78
2022/07/04 08:06:12;;;;;;;6.30;3.08;;;;;;;33.88;26.08;100464.07;1702396;83;21130;-75
2022/07/04 08:08:44;;;;;;;3.42;2.70;;;;;;;33.80;25.80;100464.94;1707533;83;21071;-74
2022/07/04 08:11:13;;;;;;;5.42;2.80;;;;;;;33.77;26.28;100457.11;1691345;84;21135;-76
2022/07/04 08:13:43;;;;;;;7.22;3.50;;;;;;;33.76;25.98;100456.88;1731559;82;21035;-75
2022/07/04 08:16:12;;;;;;;6.05;3.10;;;;;;;33.65;26.36;100460.17;1730911;82;21468;-68
2022/07/04 08:18:41;;;;;;;6.25;3.50;;;;;;;33.58;26.59;100455.66;1721598;82;21086;-75
2022/07/04 08:21:13;;;;;;;4.37;2.90;;;;;;;33.60;26.89;100460.98;1717701;82;21020;-75
2022/07/04 08:23:42;;;;;;;4.00;2.67;;;;;;;33.60;26.67;100460.39;1716687;83;21023;-75
2022/07/04 08:26:13;;;;;;;7.47;3.20;;;;;;;33.56;26.23;100458.02;1704156;83;21054;-77
2022/07/04 08:28:43;;;;;;;11.50;2.87;;;;;;;33.44;26.13;100455.73;1698139;83;21066;-69
2022/07/04 08:31:13;;;;;;;12.53;3.42;;;;;;;33.40;26.37;100452.77;1702272;83;21028;-71
2022/07/04 08:33:47;;;;;;;4.20;3.08;;;;;;;33.51;25.90;100444.63;1689766;83;21058;-74
2022/07/04 08:36:17;;;;;;;3.83;2.60;;;;;;;33.35;26.21;100446.70;1698329;83;21493;-73
2022/07/04 08:38:46;;;;;;;5.70;3.12;;;;;;;33.10;26.73;100449.98;1697663;83;21037;-75
2022/07/04 08:41:16;;;;;;;3.80;2.80;;;;;;;33.23;26.78;100445.21;1688159;84;21073;-73
2022/07/04 08:43:47;;;;;;;3.45;2.70;;;;;;;33.49;26.51;100443.55;1701055;83;21000;-77
2022/07/04 08:46:17;;;;;;;5.12;2.95;;;;;;;33.66;26.03;100445.38;1712914;83;21074;-76
2022/07/04 08:48:52;;;;;;;10.15;3.42;;;;;;;33.79;25.71;100447.64;1709899;83;21051;-73
2022/07/04 08:51:33;;;;;;;2.98;2.67;;;;;;;33.90;25.20;100440.37;1717256;83;21060;-79
2022/07/04 08:58:25;;;;;;;3.25;2.90;;;;;;;33.98;24.66;100437.42;1707607;83;21035;-72
2022/07/04 08:59:22;;;;;;;3.75;2.98;;;;;;;34.07;24.77;100443.00;1693302;83;21420;-73
2022/07/04 09:01:52;;;;;;;4.50;3.15;;;;;;;34.18;24.84;100437.66;1736069;82;21082;-73
2022/07/04 09:04:21;;;;;;;4.87;3.12;;;;;;;34.29;24.71;100439.67;1718910;83;21019;-73
2022/07/04 09:06:56;;;;;;;3.83;2.90;;;;;;;34.44;24.51;100437.32;1699158;83;21119;-71
2022/07/04 09:09:28;;;;;;;7.62;3.20;;;;;;;34.51;24.67;100439.00;1704594;82;21181;-71
2022/07/04 09:11:59;;;;;;;49.05;5.60;;;;;;;34.40;23.79;100442.06;1720051;83;21000;-73
2022/07/04 09:14:33;;;;;;;5.62;2.92;;;;;;;34.17;24.39;100445.37;1729589;82;21015;-75
2022/07/04 09:17:05;;;;;;;4.78;3.02;;;;;;;34.09;24.58;100439.20;1693794;83;21066;-75
2022/07/04 09:19:35;;;;;;;5.05;2.47;;;;;;;34.14;24.24;100441.81;1709604;83;21481;-73
2022/07/04 09:22:09;;;;;;;6.87;2.50;;;;;;;34.09;24.87;100437.78;1674747;85;21451;-74
2022/07/04 09:24:46;;;;;;;4.53;2.67;;;;;;;33.99;25.29;100435.41;1711111;83;21095;-70
2022/07/04 09:27:36;;;;;;;5.75;2.65;;;;;;;33.87;25.12;100433.39;1740488;82;21051;-74
2022/07/04 09:30:06;;;;;;;4.60;2.92;;;;;;;33.79;23.66;100434.85;1722169;82;21107;-73
2022/07/04 09:32:42;;;;;;;9.60;3.30;;;;;;;33.62;23.92;100436.72;1706755;83;21047;-72
2022/07/04 09:35:20;;;;;;;6.15;2.65;;;;;;;33.57;23.42;100425.58;1715911;83;20996;-76
2022/07/04 09:37:55;;;;;;;4.50;2.50;;;;;;;33.49;23.61;100427.92;1719255;83;21040;-73
2022/07/04 09:41:24;;;;;;;5.10;3.20;;;;;;;33.36;23.84;100429.07;1712333;83;21047;-73
2022/07/04 09:43:12;;;;;;;8.13;3.10;;;;;;;33.23;24.28;100423.08;1693354;83;21084;-75
2022/07/04 09:45:58;;;;;;;6.55;3.08;;;;;;;33.02;24.62;100428.17;1697202;83;21030;-74
2022/07/04 09:48:29;;;;;;;5.10;2.90;;;;;;;32.88;25.24;100428.22;1732643;82;21131;-73
2022/07/04 09:51:00;;;;;;;5.20;2.47;;;;;;;32.67;25.10;100423.34;1721467;82;21036;-74
2022/07/04 09:53:30;;;;;;;6.25;2.65;;;;;;;32.51;25.13;100420.84;1705432;83;21483;-72
2022/07/04 09:56:00;;;;;;;5.70;2.58;;;;;;;32.35;24.95;100424.05;1704106;83;21468;-75
2022/07/04 09:58:30;;;;;;;3.75;2.33;;;;;;;32.26;24.77;100425.52;1693330;83;21079;-72
2022/07/04 10:01:03;;;;;;;11.90;3.20;;;;;;;32.23;24.85;100421.92;1713018;84;21035;-75
2022/07/04 10:03:34;;;;;;;5.28;2.87;;;;;;;32.12;24.97;100420.06;1722177;82;21102;-76
2022/07/04 10:06:10;;;;;;;4.35;3.02;;;;;;;32.06;25.64;100414.93;1730127;82;21043;-73
2022/07/04 10:08:41;;;;;;;4.30;2.90;;;;;;;32.00;26.40;100413.45;1730777;82;21018;-72
2022/07/04 10:11:10;;;;;;;6.92;2.83;;;;;;;31.91;26.02;100405.00;1702491;82;21031;-68
2022/07/04 10:13:42;;;;;;;4.35;2.90;;;;;;;31.79;26.55;100405.69;1740644;82;21051;-75
2022/07/04 10:16:11;;;;;;;11.05;3.40;;;;;;;31.75;26.77;100408.12;1693878;83;21106;-76
2022/07/04 10:18:42;;;;;;;5.42;3.22;;;;;;;31.70;26.85;100402.64;1698963;83;21083;-74
2022/07/04 10:21:11;;;;;;;6.65;2.95;;;;;;;31.72;26.10;100399.72;1746780;82;21058;-76
2022/07/04 10:23:40;;;;;;;3.22;2.50;;;;;;;31.61;26.31;100398.40;1711289;83;21059;-75
2022/07/04 10:26:10;;;;;;;5.22;2.90;;;;;;;31.42;27.07;100398.80;1733213;82;21482;-76
2022/07/04 10:28:40;;;;;;;5.22;2.92;;;;;;;31.38;27.51;100397.80;1689719;83;21479;-76
2022/07/04 10:31:13;;;;;;;18.73;8.68;;;;;;;31.40;27.33;100387.55;1718483;83;21043;-75
2022/07/04 10:33:43;;;;;;;9.23;3.50;;;;;;;31.44;27.49;100397.04;1732672;82;21023;-75
2022/07/04 10:36:22;;;;;;;6.55;2.98;;;;;;;31.47;27.28;100392.12;1702857;82;21087;-77
2022/07/04 10:38:54;;;;;;;4.97;2.50;;;;;;;31.46;26.97;100396.12;1703420;83;21553;-76
2022/07/04 10:41:24;;;;;;;6.67;2.72;;;;;;;31.42;25.94;100386.63;1719753;83;21046;-74
2022/07/04 10:44:09;;;;;;;8.25;2.72;;;;;;;31.42;25.72;100386.05;1742940;82;21483;-75
2022/07/04 10:46:42;;;;;;;3.95;2.40;;;;;;;31.46;25.79;100387.62;1733907;82;21010;-73
2022/07/04 10:49:19;;;;;;;4.65;2.72;;;;;;;31.44;25.63;100382.87;1720986;82;21011;-75
2022/07/04 10:54:38;;;;;;;4.97;3.10;;;;;;;31.42;26.89;100378.14;1710769;83;21042;-76
2022/07/04 10:57:16;;;;;;;6.65;3.47;;;;;;;31.33;27.38;100375.92;1716056;83;21090;-75
2022/07/04 11:00:00;;;;;;;8.53;4.80;;;;;;;31.35;27.02;100375.83;1733364;82;21004;-77
2022/07/04 11:02:32;;;;;;;5.42;3.20;;;;;;;31.45;26.71;100374.05;1687570;83;21080;-76
2022/07/04 11:05:10;;;;;;;4.95;3.33;;;;;;;31.53;26.80;100369.52;1717096;83;21083;-74
2022/07/04 11:07:46;;;;;;;8.10;2.95;;;;;;;31.64;26.59;100365.73;1733878;82;21033;-75
2022/07/04 11:13:02;;;;;;;4.97;2.83;;;;;;;31.68;26.39;100366.13;1708935;83;21736;-75
2022/07/04 11:15:37;;;;;;;4.67;2.72;;;;;;;31.62;26.08;100366.65;1715269;83;21051;-75
2022/07/04 11:18:14;;;;;;;4.10;2.90;;;;;;;31.50;26.01;100375.86;1714921;83;21021;-75
2022/07/04 11:20:47;;;;;;;6.90;3.70;;;;;;;31.45;26.12;100362.72;1733669;82;21082;-75
2022/07/04 11:23:24;;;;;;;9.98;3.75;;;;;;;31.36;26.84;100357.67;1703606;83;21043;-75
2022/07/04 11:25:56;;;;;;;8.20;3.37;;;;;;;31.34;27.67;100356.34;1730714;82;21008;-74
2022/07/04 11:28:33;;;;;;;9.45;3.40;;;;;;;31.25;27.86;100354.95;1734266;82;21027;-74
2022/07/04 11:31:03;;;;;;;6.17;3.10;;;;;;;31.19;28.23;100345.78;1715427;83;21059;-77
2022/07/04 11:33:41;;;;;;;5.12;2.98;;;;;;;31.16;27.74;100340.80;1720667;83;21075;-81
2022/07/04 11:36:19;;;;;;;6.20;3.45;;;;;;;31.13;27.28;100342.02;1704787;84;21034;-78
2022/07/04 11:39:04;;;;;;;9.80;3.50;;;;;;;31.05;27.64;100333.80;1674431;85;21071;-77
2022/07/04 11:47:36;;;;;;;8.63;3.58;;;;;;;31.12;28.84;100324.78;1711474;83;21098;-77
2022/07/04 11:50:11;;;;;;;5.33;2.77;;;;;;;31.26;28.41;100324.05;1717201;83;21093;-81
2022/07/04 11:52:43;;;;;;;5.72;3.30;;;;;;;31.34;28.67;100331.69;1702540;83;21088;-81
2022/07/04 11:55:17;;;;;;;8.05;3.47;;;;;;;31.31;28.67;100323.88;1683730;85;21063;-77
2022/07/04 11:57:50;;;;;;;7.95;3.25;;;;;;;31.29;28.70;100322.55;1685215;84;21088;-81
2022/07/04 12:00:23;;;;;;;6.50;3.27;;;;;;;31.27;28.79;100319.22;1688159;85;21181;-76